Date,TemperatureHighF,TemperatureAvgF,TemperatureLowF,DewpointHighF,DewpointAvgF,DewpointLowF,HumidityHigh,HumidityAvg,HumidityLow,PressureMaxIn,PressureMinIn,WindSpeedMaxMPH,WindSpeedAvgMPH,GustSpeedMaxMPH,PrecipitationSumIn
2013-3-1,87.4,67.0,49.0,34.8,28.4,15.1,56,29,7,30.30,30.12,16,4,16,0.00
2013-3-2,83.6,68.0,53.3,47.9,32.9,21.0,68,31,10,30.20,30.06,13,4,13,0.00
2013-3-3,69.8,59.6,53.9,52.9,47.9,36.4,89,67,31,30.10,29.97,12,5,12,0.00
2013-3-4,69.3,58.9,53.2,52.3,51.0,49.1,89,76,51,30.10,30.01,16,4,16,0.00
2013-3-5,65.0,56.3,50.6,53.1,50.3,47.0,91,81,64,30.14,30.03,13,4,13,0.00
2013-3-6,64.7,56.7,49.4,49.8,45.4,42.1,81,67,45,30.17,30.02,14,5,14,0.00
2013-3-7,60.1,55.8,53.4,51.5,49.1,45.1,92,79,59,30.02,29.85,15,5,15,0.03
2013-3-8,57.4,52.9,47.0,48.1,44.8,38.5,93,75,52,30.03,29.79,17,7,17,0.44
2013-3-9,64.1,55.6,49.4,48.2,45.7,39.6,89,71,44,30.22,30.02,13,4,13,0.00
2013-3-10,72.3,58.3,44.3,47.6,41.3,28.9,88,59,22,30.28,30.15,15,4,15,0.00
2013-3-11,75.8,60.2,45.6,51.2,42.8,37.6,78,56,28,30.19,30.03,12,3,12,0.00
2013-3-12,80.4,61.7,46.6,52.4,46.8,38.9,88,63,29,30.09,29.99,10,3,10,0.00
2013-3-13,82.9,64.3,49.7,56.8,49.4,42.1,91,62,30,30.12,30.00,10,3,10,0.00
2013-3-14,81.8,63.4,52.1,57.3,52.0,48.1,97,71,36,30.09,29.99,12,4,12,0.00
2013-3-15,72.0,60.2,54.4,55.9,53.4,51.7,93,80,52,30.04,29.93,12,5,12,0.00
2013-3-16,67.8,57.5,51.9,53.7,51.3,49.2,94,81,57,29.99,29.88,13,5,13,0.00
2013-3-17,68.3,59.4,54.6,53.5,51.7,50.5,88,77,57,30.01,29.93,12,5,12,0.00
2013-3-18,65.4,58.5,54.5,52.5,51.3,49.6,85,77,63,30.09,29.99,13,4,13,0.00
2013-3-19,67.7,57.8,50.3,55.1,51.3,47.5,92,80,62,30.12,30.05,13,3,13,0.00
2013-3-20,72.2,60.7,52.0,54.7,51.8,48.8,92,74,52,30.10,29.96,12,4,12,0.00
2013-3-21,71.3,61.0,52.0,56.4,52.1,49.2,91,74,53,29.96,29.80,14,5,14,0.00
2013-3-22,70.1,60.5,55.0,54.3,52.3,49.8,90,76,53,29.91,29.81,14,5,14,0.00
2013-3-23,71.5,60.0,52.2,54.4,51.5,48.9,90,75,50,30.02,29.91,13,4,13,0.00
2013-3-24,77.3,62.5,54.2,54.7,52.7,49.2,91,73,40,30.03,29.88,14,4,14,0.00
2013-3-25,76.0,61.7,53.2,55.6,53.0,44.5,96,76,40,29.99,29.88,12,4,12,0.00
2013-3-26,70.3,61.5,56.2,54.8,53.4,51.1,92,76,55,29.97,29.89,15,5,15,0.00
2013-3-27,68.8,60.6,55.7,53.6,51.9,50.3,86,74,55,30.04,29.93,14,5,14,0.00
2013-3-28,74.5,62.0,55.4,56.5,53.3,51.6,89,75,47,30.08,30.00,15,4,15,0.00
2013-3-29,73.0,61.5,55.3,58.3,54.6,52.1,92,79,56,30.11,30.03,15,4,15,0.00
2013-3-30,71.5,61.7,56.8,56.6,53.6,48.6,89,76,56,30.13,30.04,14,6,14,0.00
2013-3-31,68.5,61.1,56.8,56.8,54.4,52.4,86,79,64,30.13,30.05,16,6,16,0.00